Time;durP1;ratioP1;P1;durP2;ratioP2;P2;SDS_P1;SDS_P2;PMS_P1;PMS_P2;Temp;Humidity;BMP_temperature;BMP_pressure;BME280_temperature;BME280_humidity;BME280_pressure;Samples;Min_cycle;Max_cycle;Signal;HPM_P1;HPM_P2
2021/11/13 00:00:16;;;;;;;81.40;34.58;;;;;;;4.44;76.09;98739.63;5062421;28;20119;-66
2021/11/13 00:02:43;;;;;;;92.93;35.08;;;;;;;4.46;76.06;98754.59;5058330;28;20029;-67
2021/11/13 00:05:09;;;;;;;108.63;40.78;;;;;;;4.49;76.06;98745.09;5062338;28;20310;-67
2021/11/13 00:07:35;;;;;;;86.55;32.80;;;;;;;4.49;76.62;98741.59;5061810;28;20017;-67
2021/11/13 00:10:00;;;;;;;85.10;34.30;;;;;;;4.47;75.85;98739.94;5044562;28;20036;-67
2021/11/13 00:12:26;;;;;;;93.03;37.00;;;;;;;4.47;75.76;98742.66;5061126;28;20032;-67
2021/11/13 00:14:51;;;;;;;91.35;35.35;;;;;;;4.50;76.66;98735.06;5055169;28;20745;-67
2021/11/13 00:17:17;;;;;;;92.93;36.90;;;;;;;4.53;76.15;98737.28;5066180;28;20535;-67
2021/11/13 00:19:43;;;;;;;89.22;36.45;;;;;;;4.55;76.68;98733.25;5060670;28;20082;-67
2021/11/13 00:22:10;;;;;;;99.53;40.25;;;;;;;4.55;76.12;98737.88;5080031;28;20275;-67
2021/11/13 00:24:36;;;;;;;88.50;34.90;;;;;;;4.51;76.61;98737.53;5087359;28;20034;-66
2021/11/13 00:27:06;;;;;;;96.80;37.53;;;;;;;4.51;76.54;98729.38;5087012;28;20074;-67
2021/11/13 00:29:32;;;;;;;114.82;46.17;;;;;;;4.53;76.46;98737.28;5086910;28;20055;-68
2021/11/13 00:31:57;;;;;;;127.18;54.00;;;;;;;4.58;76.68;98730.03;5088592;28;20032;-67
2021/11/13 00:34:23;;;;;;;105.90;45.60;;;;;;;4.62;76.48;98727.66;5092029;28;20016;-68
2021/11/13 00:36:49;;;;;;;105.95;42.15;;;;;;;4.61;76.47;98724.09;5092408;28;20024;-67
2021/11/13 00:39:14;;;;;;;109.75;41.95;;;;;;;4.60;76.48;98718.94;5090256;28;20099;-67
2021/11/13 00:41:40;;;;;;;108.93;40.45;;;;;;;4.63;76.79;98726.59;5092120;28;20059;-67
2021/11/13 00:44:05;;;;;;;117.05;44.13;;;;;;;4.66;76.86;98720.66;5092298;28;20024;-68
2021/11/13 00:46:31;;;;;;;89.28;37.47;;;;;;;4.68;76.54;98723.94;5074915;28;20032;-67
2021/11/13 00:48:57;;;;;;;90.68;35.28;;;;;;;4.70;76.24;98724.47;5092097;28;20533;-67
2021/11/13 00:51:22;;;;;;;92.47;35.92;;;;;;;4.72;76.62;98722.34;5091983;28;20099;-67
2021/11/13 00:53:49;;;;;;;91.95;33.40;;;;;;;4.70;76.73;98716.34;5092262;28;20024;-67
2021/11/13 00:56:15;;;;;;;95.93;36.08;;;;;;;4.71;76.00;98722.59;5092053;28;21493;-67
2021/11/13 00:58:41;;;;;;;92.70;37.20;;;;;;;4.69;76.60;98709.25;5092184;28;20062;-67
2021/11/13 01:01:07;;;;;;;85.13;33.42;;;;;;;4.69;76.20;98705.72;5091817;28;20027;-67
2021/11/13 01:03:33;;;;;;;92.38;34.85;;;;;;;4.68;76.08;98709.50;5091816;28;20042;-66
2021/11/13 01:05:59;;;;;;;84.60;33.03;;;;;;;4.66;76.65;98707.06;5091913;28;20056;-66
2021/11/13 01:08:24;;;;;;;87.35;32.67;;;;;;;4.62;76.65;98695.88;5092548;28;20503;-67
2021/11/13 01:10:50;;;;;;;69.78;28.27;;;;;;;4.58;76.49;98693.91;5091825;28;20053;-67
2021/11/13 01:13:15;;;;;;;68.35;26.60;;;;;;;4.53;76.30;98696.56;5091723;28;20020;-67
2021/11/13 01:15:43;;;;;;;83.28;31.83;;;;;;;4.41;76.38;98700.19;5072689;28;20030;-67
2021/11/13 01:18:08;;;;;;;79.90;28.73;;;;;;;4.39;76.02;98696.09;5091667;28;20054;-67
2021/11/13 01:20:34;;;;;;;83.75;29.60;;;;;;;4.38;76.82;98691.72;5091352;28;20035;-66
2021/11/13 01:23:00;;;;;;;81.97;30.77;;;;;;;4.37;76.39;98690.91;5093561;28;20032;-67
2021/11/13 01:25:27;;;;;;;81.57;30.15;;;;;;;4.38;76.29;98691.72;5089972;28;20102;-67
2021/11/13 01:27:53;;;;;;;86.38;31.55;;;;;;;4.41;76.53;98692.03;5092402;28;20027;-67
2021/11/13 01:30:18;;;;;;;87.03;32.42;;;;;;;4.41;76.92;98683.09;5091133;28;20032;-67
2021/11/13 01:32:45;;;;;;;86.07;31.70;;;;;;;4.42;76.46;98685.53;5091503;28;20048;-67
2021/11/13 01:35:11;;;;;;;87.22;32.15;;;;;;;4.44;76.36;98690.75;5094246;28;20024;-67
2021/11/13 01:37:37;;;;;;;88.93;31.58;;;;;;;4.46;76.91;98683.16;5092025;28;20097;-66
2021/11/13 01:40:05;;;;;;;87.13;31.95;;;;;;;4.45;76.29;98676.09;5091865;28;20020;-67
2021/11/13 01:42:32;;;;;;;85.75;30.42;;;;;;;4.45;76.81;98678.81;5091342;28;20028;-67
2021/11/13 01:44:58;;;;;;;71.18;27.30;;;;;;;4.47;76.04;98676.66;5091705;28;20019;-67
2021/11/13 01:47:24;;;;;;;77.07;29.35;;;;;;;4.48;76.63;98681.03;5091992;28;20098;-67
2021/11/13 01:49:50;;;;;;;67.70;25.33;;;;;;;4.47;76.63;98677.47;5092082;28;20062;-67
2021/11/13 01:52:16;;;;;;;78.32;29.20;;;;;;;4.48;76.64;98678.31;5092013;28;20031;-67
2021/11/13 01:54:43;;;;;;;79.13;30.55;;;;;;;4.49;76.26;98666.34;5092009;28;20115;-67
2021/11/13 01:57:12;;;;;;;81.78;31.05;;;;;;;4.45;76.07;98657.88;5074145;28;20028;-67
2021/11/13 01:59:40;;;;;;;77.78;28.85;;;;;;;4.43;76.64;98657.31;5092032;28;20020;-67
2021/11/13 02:02:07;;;;;;;80.43;30.35;;;;;;;4.45;76.09;98651.66;5092026;28;20484;-67
2021/11/13 02:04:33;;;;;;;84.03;30.20;;;;;;;4.47;76.63;98653.03;5092407;28;20065;-67
2021/11/13 02:06:58;;;;;;;85.53;30.63;;;;;;;4.49;76.55;98652.75;5091978;28;20032;-67
2021/11/13 02:09:25;;;;;;;84.32;30.23;;;;;;;4.50;76.50;98651.69;5091369;28;20245;-66
2021/11/13 02:11:50;;;;;;;84.22;29.52;;;;;;;4.53;76.69;98662.06;5091388;28;20039;-67
2021/11/13 02:14:16;;;;;;;95.75;31.13;;;;;;;4.54;76.20;98654.72;5089681;28;20024;-67
2021/11/13 02:16:41;;;;;;;78.13;28.98;;;;;;;4.53;75.86;98653.91;5073450;28;20388;-67
2021/11/13 02:19:08;;;;;;;87.35;30.48;;;;;;;4.47;75.86;98644.06;5091425;28;20028;-67
2021/11/13 02:21:34;;;;;;;90.10;32.88;;;;;;;4.47;76.03;98650.31;5090701;28;20028;-67
2021/11/13 02:24:00;;;;;;;88.00;33.42;;;;;;;4.54;76.55;98649.31;5093232;28;20024;-67
2021/11/13 02:26:26;;;;;;;92.45;32.58;;;;;;;4.52;76.28;98648.72;5090669;28;20387;-67
2021/11/13 02:28:54;;;;;;;89.20;31.77;;;;;;;4.52;76.02;98652.25;5092255;28;20048;-67
2021/11/13 02:31:31;;;;;;;91.55;30.63;;;;;;;4.55;76.93;98648.22;5088777;28;20059;-67
2021/11/13 02:33:57;;;;;;;90.28;30.23;;;;;;;4.54;76.25;98649.31;5091779;28;20032;-67
2021/11/13 02:36:22;;;;;;;88.65;30.92;;;;;;;4.54;76.05;98649.31;5090806;28;20024;-67
2021/11/13 02:38:53;;;;;;;90.38;32.92;;;;;;;4.54;76.61;98650.13;5074819;28;20395;-66
2021/11/13 02:41:21;;;;;;;87.38;29.92;;;;;;;4.54;76.35;98641.16;5088818;28;20073;-67
2021/11/13 02:43:48;;;;;;;83.90;30.02;;;;;;;4.52;76.31;98644.09;5091375;28;20027;-67
2021/11/13 02:46:14;;;;;;;82.90;32.08;;;;;;;4.55;76.60;98649.03;5091310;28;20032;-67
2021/11/13 02:48:41;;;;;;;84.10;29.95;;;;;;;4.56;75.96;98644.44;5089722;28;20429;-67
2021/11/13 02:51:08;;;;;;;83.15;30.33;;;;;;;4.55;76.47;98638.16;5090787;28;20016;-67
2021/11/13 02:53:33;;;;;;;70.53;25.80;;;;;;;4.54;76.82;98638.44;5073215;28;20432;-67
2021/11/13 02:56:03;;;;;;;73.30;28.48;;;;;;;4.50;76.00;98642.72;5072434;28;20115;-67
2021/11/13 02:58:29;;;;;;;86.75;30.50;;;;;;;4.49;76.19;98633.75;5090440;28;20035;-67
2021/11/13 03:01:05;;;;;;;75.28;27.88;;;;;;;4.47;76.28;98639.44;5090783;28;20036;-67
2021/11/13 03:03:30;;;;;;;89.45;31.73;;;;;;;4.46;76.30;98637.00;5089867;28;20026;-67
2021/11/13 03:05:58;;;;;;;77.03;29.02;;;;;;;4.46;75.97;98640.50;5090870;28;20028;-67
2021/11/13 03:08:32;;;;;;;75.03;27.90;;;;;;;4.47;76.77;98636.72;5073247;28;20380;-67
2021/11/13 03:11:01;;;;;;;73.60;26.80;;;;;;;4.42;76.46;98636.66;5090644;28;20138;-67
2021/11/13 03:13:29;;;;;;;76.13;28.38;;;;;;;4.41;76.11;98632.28;5090978;28;20068;-67
2021/11/13 03:15:55;;;;;;;70.93;25.63;;;;;;;4.38;76.41;98632.78;5073991;28;20328;-67
2021/11/13 03:18:20;;;;;;;77.35;28.73;;;;;;;4.32;76.25;98628.38;5093718;28;20050;-67
2021/11/13 03:20:47;;;;;;;69.35;26.27;;;;;;;4.29;76.14;98632.41;5091037;28;20651;-67
2021/11/13 03:23:14;;;;;;;74.13;27.52;;;;;;;4.28;76.05;98627.25;5091012;28;20124;-67
2021/11/13 03:25:43;;;;;;;75.30;27.55;;;;;;;4.32;76.47;98631.06;5088487;28;20069;-68
2021/11/13 03:28:12;;;;;;;78.68;28.02;;;;;;;4.31;76.09;98633.00;5092128;28;20093;-68
2021/11/13 03:30:39;;;;;;;78.20;29.15;;;;;;;4.35;75.99;98637.91;5090872;28;20032;-67
2021/11/13 03:33:05;;;;;;;77.38;27.08;;;;;;;4.35;76.65;98635.19;5090620;28;20028;-67
2021/11/13 03:35:32;;;;;;;71.63;26.63;;;;;;;4.30;76.01;98630.50;5090674;28;20031;-67
2021/11/13 03:38:09;;;;;;;75.60;27.90;;;;;;;4.22;76.00;98636.38;5072165;28;20027;-67
2021/11/13 03:40:36;;;;;;;73.30;27.33;;;;;;;4.16;75.87;98636.31;5089912;28;20024;-67
2021/11/13 03:43:03;;;;;;;78.57;29.05;;;;;;;4.17;76.09;98637.13;5090721;28;20026;-67
2021/11/13 03:45:28;;;;;;;82.75;28.50;;;;;;;4.18;76.88;98636.06;5090230;28;20027;-67
2021/11/13 03:47:54;;;;;;;79.80;29.35;;;;;;;4.20;76.12;98633.09;5090659;28;20284;-68
2021/11/13 03:50:20;;;;;;;83.22;28.55;;;;;;;4.24;76.61;98628.81;5083634;28;20365;-67
2021/11/13 03:52:46;;;;;;;71.05;25.80;;;;;;;4.27;77.00;98628.31;5088778;28;20064;-67
2021/11/13 03:55:11;;;;;;;83.60;29.63;;;;;;;4.26;76.63;98626.69;5089269;28;20028;-67
2021/11/13 03:57:37;;;;;;;76.32;28.17;;;;;;;4.30;76.80;98620.47;5071868;28;20477;-67
2021/11/13 04:00:05;;;;;;;79.85;29.02;;;;;;;4.27;75.86;98617.47;5089972;28;20020;-67
2021/11/13 04:02:31;;;;;;;82.78;28.92;;;;;;;4.25;76.02;98620.41;5089076;28;20031;-68
2021/11/13 04:04:56;;;;;;;73.72;26.30;;;;;;;4.23;76.54;98616.31;5089065;28;20028;-67
2021/11/13 04:07:22;;;;;;;77.90;27.17;;;;;;;4.19;76.73;98617.88;5096017;28;20035;-67
2021/11/13 04:09:47;;;;;;;82.72;29.27;;;;;;;4.16;76.46;98613.75;5094013;28;20372;-68
2021/11/13 04:12:14;;;;;;;76.00;27.40;;;;;;;4.16;76.19;98609.16;5093693;28;20019;-67
2021/11/13 04:14:41;;;;;;;83.93;29.70;;;;;;;4.17;76.12;98605.38;5094215;28;20024;-67
2021/11/13 04:17:07;;;;;;;87.07;31.20;;;;;;;4.17;76.47;98605.38;5094190;28;20028;-67
2021/11/13 04:19:33;;;;;;;93.25;30.73;;;;;;;4.21;77.06;98605.69;5094914;28;20031;-67
2021/11/13 04:21:59;;;;;;;84.65;29.58;;;;;;;4.23;76.81;98610.88;5093705;28;20468;-67
2021/11/13 04:24:24;;;;;;;84.90;30.23;;;;;;;4.26;76.68;98602.25;5093649;28;20046;-67
2021/11/13 04:26:50;;;;;;;83.57;28.80;;;;;;;4.24;76.43;98602.47;5093602;28;20119;-67
2021/11/13 04:29:15;;;;;;;70.13;26.25;;;;;;;4.19;76.12;98605.13;5093665;28;20036;-67
2021/11/13 04:31:41;;;;;;;81.78;27.58;;;;;;;4.16;76.25;98595.59;5093604;28;20027;-67
2021/11/13 04:34:14;;;;;;;80.53;29.95;;;;;;;4.15;76.25;98598.53;5078308;28;20032;-67
2021/11/13 04:36:44;;;;;;;82.82;28.83;;;;;;;4.14;77.06;98589.59;5093572;28;20030;-67
2021/11/13 04:39:11;;;;;;;82.57;31.05;;;;;;;4.06;76.15;98592.72;5093372;28;20055;-67
2021/11/13 04:41:37;;;;;;;94.97;38.20;;;;;;;4.05;76.92;98588.38;5093184;28;20028;-67
2021/11/13 04:44:04;;;;;;;123.13;61.78;;;;;;;4.06;76.89;98595.44;5095317;28;20020;-67
2021/11/13 04:46:29;;;;;;;100.35;41.83;;;;;;;4.07;76.75;98593.56;5103838;28;20020;-68
2021/11/13 04:48:55;;;;;;;82.78;32.63;;;;;;;4.08;76.58;98604.16;5094837;28;20435;-68
2021/11/13 04:51:21;;;;;;;88.35;32.08;;;;;;;4.11;76.95;98594.69;5094652;28;20044;-67
2021/11/13 04:53:47;;;;;;;88.70;30.00;;;;;;;4.09;76.54;98586.81;5115410;28;20039;-67
2021/11/13 04:56:12;;;;;;;74.50;29.35;;;;;;;4.08;76.91;98593.31;5102199;28;20024;-66
2021/11/13 04:58:38;;;;;;;81.20;32.03;;;;;;;4.06;76.82;98597.34;5094756;28;20028;-66
2021/11/13 05:01:04;;;;;;;91.72;36.80;;;;;;;4.10;77.10;98602.03;5076114;28;20503;-66
2021/11/13 05:03:30;;;;;;;85.53;35.80;;;;;;;4.12;76.60;98588.19;5094354;28;20388;-67
2021/11/13 05:05:57;;;;;;;92.40;35.78;;;;;;;4.15;76.67;98591.25;5075747;28;20032;-66
2021/11/13 05:08:22;;;;;;;92.88;33.00;;;;;;;4.15;76.48;98599.38;5094550;28;20031;-67
2021/11/13 05:10:49;;;;;;;81.63;30.77;;;;;;;4.14;76.97;98595.03;5098100;28;20438;-66
2021/11/13 05:13:14;;;;;;;84.82;30.63;;;;;;;4.12;76.75;98594.44;5094425;28;20039;-66
2021/11/13 05:15:40;;;;;;;85.47;33.33;;;;;;;4.12;76.72;98594.44;5094289;28;20062;-67
2021/11/13 05:18:06;;;;;;;86.97;31.33;;;;;;;4.13;76.23;98596.09;5093588;28;20040;-66
2021/11/13 05:20:32;;;;;;;83.50;30.67;;;;;;;4.15;76.43;98593.13;5093464;28;20162;-66
2021/11/13 05:22:57;;;;;;;76.05;28.40;;;;;;;4.12;76.64;98593.63;5075960;28;20087;-66
2021/11/13 05:25:23;;;;;;;81.25;29.13;;;;;;;4.11;76.28;98597.41;5094145;28;20024;-67
2021/11/13 05:27:50;;;;;;;86.03;32.20;;;;;;;4.11;76.57;98608.25;5093785;28;20423;-67
2021/11/13 05:30:17;;;;;;;82.43;28.77;;;;;;;4.13;77.15;98593.38;5094265;28;20032;-66
2021/11/13 05:32:43;;;;;;;76.35;27.83;;;;;;;4.11;76.65;98590.09;5093454;28;20107;-67
2021/11/13 05:35:10;;;;;;;83.50;30.35;;;;;;;4.12;76.76;98599.88;5097932;28;20106;-66
2021/11/13 05:37:36;;;;;;;64.22;24.73;;;;;;;4.06;76.52;98600.88;5093662;28;20031;-67
2021/11/13 05:40:03;;;;;;;81.57;30.30;;;;;;;4.04;76.31;98599.50;5094186;28;20031;-67
2021/11/13 05:42:29;;;;;;;74.90;26.80;;;;;;;4.07;76.74;98605.22;5093982;28;20028;-66
2021/11/13 05:44:55;;;;;;;79.38;29.70;;;;;;;4.08;76.53;98604.16;5093951;28;20043;-68
2021/11/13 05:47:21;;;;;;;82.72;30.13;;;;;;;4.10;76.53;98610.16;5093771;28;20035;-68
2021/11/13 05:49:47;;;;;;;80.65;29.35;;;;;;;4.10;76.26;98596.59;5093375;28;20468;-67
2021/11/13 05:52:12;;;;;;;61.63;23.08;;;;;;;4.09;76.13;98600.38;5093056;28;20043;-67
2021/11/13 05:54:38;;;;;;;72.85;26.23;;;;;;;4.07;76.75;98607.16;5075900;28;20152;-68
2021/11/13 05:57:03;;;;;;;78.88;27.48;;;;;;;4.09;76.29;98613.13;5093085;28;20020;-67
2021/11/13 05:59:29;;;;;;;71.35;27.63;;;;;;;4.05;76.39;98612.00;5093889;28;20038;-67
2021/11/13 06:01:54;;;;;;;78.55;29.02;;;;;;;4.07;76.16;98616.09;5092946;28;20027;-67
2021/11/13 06:04:19;;;;;;;71.05;26.20;;;;;;;4.08;76.49;98612.31;5093181;28;20383;-67
2021/11/13 06:06:45;;;;;;;68.95;25.50;;;;;;;4.07;76.97;98620.72;5075309;28;20035;-68
2021/11/13 06:09:10;;;;;;;75.50;27.35;;;;;;;4.09;76.21;98624.81;5093155;28;20032;-67
2021/11/13 06:11:36;;;;;;;80.18;28.27;;;;;;;4.11;76.80;98628.09;5093844;28;20035;-68
2021/11/13 06:14:01;;;;;;;77.75;28.33;;;;;;;4.13;76.57;98622.41;5093324;28;20028;-67
2021/11/13 06:16:27;;;;;;;79.10;28.33;;;;;;;4.15;77.11;98625.69;5092800;28;20080;-68
2021/11/13 06:18:52;;;;;;;68.00;27.02;;;;;;;4.11;76.75;98629.97;5093278;28;20024;-68
2021/11/13 06:21:18;;;;;;;103.30;38.83;;;;;;;4.08;76.51;98634.03;5102287;28;20444;-68
2021/11/13 06:23:45;;;;;;;97.55;38.22;;;;;;;4.09;76.92;98635.66;5111952;28;20061;-68
2021/11/13 06:26:11;;;;;;;92.50;37.13;;;;;;;4.10;76.70;98639.19;5098378;28;20156;-68
2021/11/13 06:28:37;;;;;;;86.63;32.83;;;;;;;4.11;76.48;98636.25;5092356;28;20492;-68
2021/11/13 06:31:02;;;;;;;77.65;28.83;;;;;;;4.14;76.28;98632.19;5092218;28;20036;-68
2021/11/13 06:33:28;;;;;;;99.75;36.75;;;;;;;4.17;76.60;98646.09;5092783;28;20027;-67
2021/11/13 06:35:53;;;;;;;74.97;28.98;;;;;;;4.16;77.00;98643.63;5092095;28;20521;-67
2021/11/13 06:38:19;;;;;;;69.00;26.90;;;;;;;4.15;76.45;98648.25;5077381;28;20054;-68
2021/11/13 06:40:45;;;;;;;67.05;26.15;;;;;;;4.10;76.83;98641.91;5094978;28;20042;-67
2021/11/13 06:43:10;;;;;;;80.07;29.88;;;;;;;4.08;76.42;98650.31;5093091;28;20396;-68
2021/11/13 06:45:36;;;;;;;59.53;24.27;;;;;;;4.08;76.92;98647.59;5092397;28;20056;-68
2021/11/13 06:48:02;;;;;;;75.25;33.72;;;;;;;4.07;76.31;98648.66;5092539;28;20032;-67
2021/11/13 06:50:28;;;;;;;81.30;36.88;;;;;;;4.10;76.15;98653.59;5092623;28;20074;-68
2021/11/13 06:52:53;;;;;;;76.47;36.10;;;;;;;4.15;76.46;98655.56;5092708;28;20392;-67
2021/11/13 06:55:22;;;;;;;75.18;34.85;;;;;;;4.15;77.12;98652.84;5077552;28;20027;-67
2021/11/13 06:57:47;;;;;;;74.93;33.08;;;;;;;4.15;77.06;98652.84;5074523;28;20419;-67
2021/11/13 07:00:16;;;;;;;61.45;25.63;;;;;;;4.13;76.84;98655.81;5091810;28;20031;-68
2021/11/13 07:02:42;;;;;;;69.33;30.20;;;;;;;4.09;76.40;98654.66;5092696;28;20422;-67
2021/11/13 07:05:09;;;;;;;75.43;30.65;;;;;;;4.11;76.44;98662.53;5092963;28;20109;-67
2021/11/13 07:07:35;;;;;;;61.47;25.65;;;;;;;4.10;77.02;98659.03;5088429;28;20396;-68
2021/11/13 07:10:05;;;;;;;68.03;28.45;;;;;;;4.11;76.76;98657.13;5092363;28;20047;-69
2021/11/13 07:12:30;;;;;;;64.72;28.85;;;;;;;4.14;76.87;98654.75;5097722;28;20031;-68
2021/11/13 07:14:56;;;;;;;71.05;28.90;;;;;;;4.13;76.81;98652.25;5109438;28;20107;-69
2021/11/13 07:17:22;;;;;;;60.75;25.30;;;;;;;4.13;76.50;98655.81;5091972;28;20060;-69
2021/11/13 07:19:48;;;;;;;69.90;28.65;;;;;;;4.12;76.80;98650.63;5092579;28;20032;-69
2021/11/13 07:22:15;;;;;;;76.90;29.15;;;;;;;4.21;76.68;98660.00;5092428;28;20073;-68
2021/11/13 07:24:41;;;;;;;80.65;31.15;;;;;;;4.26;76.54;98657.34;5075223;28;20032;-68
2021/11/13 07:27:08;;;;;;;112.63;43.42;;;;;;;4.32;77.06;98666.38;5092766;28;20117;-68
2021/11/13 07:29:37;;;;;;;97.13;41.15;;;;;;;4.33;76.71;98654.44;5091652;28;20492;-69
2021/11/13 07:32:03;;;;;;;70.70;29.10;;;;;;;4.36;76.40;98664.81;5092581;28;20020;-69
2021/11/13 07:34:29;;;;;;;68.88;28.55;;;;;;;4.37;76.70;98657.50;5091819;28;20054;-68
2021/11/13 07:36:54;;;;;;;71.28;29.67;;;;;;;4.40;76.29;98662.44;5094313;28;20365;-69
2021/11/13 07:39:20;;;;;;;68.18;28.45;;;;;;;4.42;76.93;98658.38;5098976;28;20035;-68
2021/11/13 07:41:45;;;;;;;66.95;28.98;;;;;;;4.41;76.51;98654.03;5074261;28;20547;-68
2021/11/13 07:44:11;;;;;;;63.00;27.10;;;;;;;4.44;76.76;98650.00;5093262;28;20039;-68
2021/11/13 07:46:38;;;;;;;67.03;28.55;;;;;;;4.43;76.45;98651.06;5092210;28;20032;-68
2021/11/13 07:49:03;;;;;;;63.80;25.88;;;;;;;4.48;76.49;98659.28;5093039;28;20055;-68
2021/11/13 07:51:29;;;;;;;61.80;27.17;;;;;;;4.53;76.85;98656.63;5091652;28;20024;-67
2021/11/13 07:53:54;;;;;;;58.47;24.08;;;;;;;4.58;76.51;98653.16;5093657;28;20076;-67
2021/11/13 07:56:19;;;;;;;59.58;25.20;;;;;;;4.65;76.08;98661.94;5092250;28;20032;-68
2021/11/13 07:58:45;;;;;;;154.82;47.53;;;;;;;4.69;75.84;98660.34;5091222;28;20546;-68
2021/11/13 08:01:10;;;;;;;221.00;68.72;;;;;;;4.74;76.71;98660.41;5092315;28;20115;-68
2021/11/13 08:03:36;;;;;;;185.07;59.30;;;;;;;4.82;76.91;98653.72;5073673;28;20031;-69
2021/11/13 08:06:01;;;;;;;88.95;34.25;;;;;;;4.92;76.12;98650.31;5091197;28;20024;-69
2021/11/13 08:08:27;;;;;;;96.93;38.20;;;;;;;4.99;76.13;98653.66;5092566;28;20016;-69
2021/11/13 08:10:52;;;;;;;80.25;31.88;;;;;;;5.05;76.20;98647.19;5092501;28;20032;-68
2021/11/13 08:13:19;;;;;;;89.55;38.78;;;;;;;5.12;75.89;98643.44;5073341;28;20028;-68
2021/11/13 08:15:46;;;;;;;73.70;29.70;;;;;;;5.24;76.33;98656.91;5072445;28;20028;-68
2021/11/13 08:18:11;;;;;;;70.97;33.42;;;;;;;5.33;76.22;98639.84;5091734;28;20042;-69
2021/11/13 08:20:38;;;;;;;83.60;36.90;;;;;;;5.44;76.30;98648.13;5091513;28;20027;-69
2021/11/13 08:23:08;;;;;;;59.47;25.63;;;;;;;5.47;75.71;98647.63;5090311;28;20070;-69
2021/11/13 08:25:34;;;;;;;62.95;26.20;;;;;;;5.48;75.60;98643.81;5087378;28;20074;-69
2021/11/13 08:27:59;;;;;;;76.80;32.88;;;;;;;5.46;75.56;98651.41;5091397;28;20140;-69
2021/11/13 08:30:28;;;;;;;77.93;31.25;;;;;;;5.46;75.69;98654.13;5087832;28;20055;-69
2021/11/13 08:32:54;;;;;;;98.10;47.67;;;;;;;5.48;75.57;98652.78;5090014;28;20039;-68
2021/11/13 08:35:19;;;;;;;92.65;43.75;;;;;;;5.54;75.46;98653.63;5090945;28;20286;-68
2021/11/13 08:37:46;;;;;;;95.88;48.55;;;;;;;5.60;75.86;98649.88;5087814;28;20121;-69
2021/11/13 08:40:12;;;;;;;85.28;39.08;;;;;;;5.63;75.82;98649.38;5096829;28;20046;-69
2021/11/13 08:42:38;;;;;;;75.05;35.60;;;;;;;5.65;75.30;98647.22;5091821;28;20552;-69
2021/11/13 08:45:08;;;;;;;88.65;37.53;;;;;;;5.66;75.21;98646.13;5091444;28;20122;-69
2021/11/13 08:47:35;;;;;;;91.45;39.63;;;;;;;5.70;75.51;98656.50;5091023;28;20446;-69
2021/11/13 08:50:00;;;;;;;77.75;38.03;;;;;;;5.67;75.18;98649.69;5091375;28;20032;-68
2021/11/13 08:52:25;;;;;;;79.85;36.65;;;;;;;5.72;75.38;98651.63;5091263;28;20086;-68
2021/11/13 08:54:52;;;;;;;85.05;38.33;;;;;;;5.74;74.98;98652.19;5094713;28;20432;-68
2021/11/13 08:57:17;;;;;;;62.65;28.92;;;;;;;5.81;75.17;98660.97;5094549;28;20032;-68
2021/11/13 08:59:43;;;;;;;67.15;29.73;;;;;;;5.87;75.26;98657.19;5095063;28;20553;-68
2021/11/13 09:02:15;;;;;;;73.38;32.90;;;;;;;5.91;75.50;98654.78;5095290;28;20103;-69
2021/11/13 09:04:43;;;;;;;80.97;36.53;;;;;;;5.93;74.77;98660.78;5093365;28;20622;-69
2021/11/13 09:07:09;;;;;;;78.90;34.92;;;;;;;5.93;74.94;98658.06;5093455;28;20448;-69
2021/11/13 09:09:37;;;;;;;109.00;49.72;;;;;;;5.98;74.73;98655.38;5094962;28;20052;-69
2021/11/13 09:12:12;;;;;;;97.18;45.83;;;;;;;6.08;74.75;98660.09;5092156;28;20030;-69
2021/11/13 09:14:38;;;;;;;105.22;49.20;;;;;;;6.19;74.91;98658.25;5093290;28;20100;-68
2021/11/13 09:17:04;;;;;;;89.18;44.13;;;;;;;6.28;74.90;98658.59;5093350;28;20035;-68
2021/11/13 09:19:30;;;;;;;77.97;39.15;;;;;;;6.30;74.77;98657.25;5096862;28;20028;-67
2021/11/13 09:21:55;;;;;;;76.28;39.83;;;;;;;6.32;74.37;98656.97;5093698;28;20027;-66
2021/11/13 09:24:22;;;;;;;72.38;36.65;;;;;;;6.35;74.21;98648.25;5095759;28;20038;-66
2021/11/13 09:26:48;;;;;;;81.82;38.95;;;;;;;6.45;74.35;98651.06;5095134;28;20066;-67
2021/11/13 09:29:14;;;;;;;64.05;29.88;;;;;;;6.53;74.26;98649.72;5092702;28;20052;-66
2021/11/13 09:31:43;;;;;;;60.97;26.08;;;;;;;6.60;73.79;98644.06;5078955;28;20064;-67
2021/11/13 09:34:11;;;;;;;63.83;31.42;;;;;;;6.67;73.90;98644.63;5094266;28;20032;-66
2021/11/13 09:36:36;;;;;;;61.38;28.98;;;;;;;6.79;74.05;98639.75;5106378;28;20019;-68
2021/11/13 09:39:03;;;;;;;57.05;26.83;;;;;;;6.87;73.51;98643.06;5104135;28;20488;-67
2021/11/13 09:41:29;;;;;;;73.30;31.52;;;;;;;6.93;73.82;98636.53;5087413;28;20472;-67
2021/11/13 09:43:54;;;;;;;67.72;31.55;;;;;;;7.00;73.59;98634.38;5095890;28;20036;-68
2021/11/13 09:46:20;;;;;;;70.20;34.60;;;;;;;7.04;73.60;98627.31;5106179;28;20019;-67
2021/11/13 09:48:51;;;;;;;61.75;29.38;;;;;;;7.06;73.32;98619.69;5096947;28;20135;-68
2021/11/13 09:51:17;;;;;;;63.42;29.02;;;;;;;7.07;73.23;98620.50;5091632;28;20066;-68
2021/11/13 09:53:42;;;;;;;62.90;29.23;;;;;;;7.14;72.68;98626.50;5097654;28;20032;-68
2021/11/13 09:56:10;;;;;;;59.92;27.67;;;;;;;7.17;72.41;98615.06;5098986;28;20407;-68
2021/11/13 09:58:35;;;;;;;65.80;29.80;;;;;;;7.19;72.68;98617.50;5094965;28;20028;-68
2021/11/13 10:01:01;;;;;;;70.75;32.53;;;;;;;7.26;72.26;98615.34;5095828;28;20031;-67
2021/11/13 10:03:27;;;;;;;56.85;26.85;;;;;;;7.32;71.96;98614.25;5099910;28;20027;-67
2021/11/13 10:06:01;;;;;;;62.95;29.65;;;;;;;7.29;71.95;98603.88;5098541;28;20028;-67
2021/11/13 10:08:27;;;;;;;62.00;28.35;;;;;;;7.26;71.97;98604.44;5096581;28;20035;-68
2021/11/13 10:11:01;;;;;;;57.75;26.75;;;;;;;7.05;71.80;98604.41;5093557;28;20032;-67
2021/11/13 10:13:39;;;;;;;58.25;27.25;;;;;;;6.98;71.64;98599.19;5082943;28;20020;-67
2021/11/13 10:16:09;;;;;;;61.80;29.02;;;;;;;6.94;72.25;98600.00;5075056;28;20039;-67
2021/11/13 10:18:39;;;;;;;56.65;26.52;;;;;;;6.99;71.91;98594.56;5091607;28;20158;-69
2021/11/13 10:21:06;;;;;;;;;;;;;;;7.03;72.08;98595.66;5093887;28;20023;-71
2021/11/13 10:23:38;;;;;;;60.83;27.67;;;;;;;7.03;71.77;98589.38;5092221;28;20371;-71
2021/11/13 10:26:18;;;;;;;65.97;29.35;;;;;;;7.09;72.30;98586.41;5086218;28;20050;-71
2021/11/13 10:28:48;;;;;;;;;;;;;;;7.18;72.33;98586.69;5095598;28;20043;-71
2021/11/13 10:31:29;;;;;;;58.88;27.40;;;;;;;7.25;71.80;98581.81;5096480;28;19923;-69
2021/11/13 10:33:59;;;;;;;67.57;30.38;;;;;;;7.31;72.09;98577.16;5072814;28;20577;-69
2021/11/13 10:36:32;;;;;;;68.53;30.83;;;;;;;7.43;71.29;98580.44;5072684;28;20025;-69
2021/11/13 10:39:02;;;;;;;49.30;25.52;;;;;;;7.49;71.64;98566.81;5071046;28;20551;-70
2021/11/13 10:41:28;;;;;;;56.30;26.60;;;;;;;7.50;71.24;98569.25;5072137;28;20032;-69
2021/11/13 10:43:53;;;;;;;55.55;26.42;;;;;;;7.53;70.86;98568.69;5087798;28;20031;-69
2021/11/13 10:46:23;;;;;;;52.50;25.80;;;;;;;7.51;71.41;98561.88;5091592;28;20066;-68
2021/11/13 10:48:56;;;;;;;60.22;26.25;;;;;;;7.49;69.94;98562.16;5058335;28;20065;-68
2021/11/13 10:51:28;;;;;;;50.20;24.52;;;;;;;7.52;70.28;98566.25;5055408;28;20580;-68
2021/11/13 10:53:54;;;;;;;54.83;25.25;;;;;;;7.51;70.19;98570.88;5043773;28;20020;-68
2021/11/13 10:56:25;;;;;;;59.03;27.98;;;;;;;7.44;70.11;98568.44;5064637;28;20024;-70
2021/11/13 10:58:55;;;;;;;47.50;23.85;;;;;;;7.37;69.35;98565.16;5049425;28;20028;-70
2021/11/13 11:01:23;;;;;;;;;;;;;;;7.38;69.73;98560.50;5065439;28;20043;-67
2021/11/13 11:03:49;;;;;;;64.40;29.88;;;;;;;7.45;70.04;98556.44;5066115;28;19916;-67
2021/11/13 11:06:22;;;;;;;57.75;27.77;;;;;;;7.55;70.17;98552.03;5045799;28;20273;-67
2021/11/13 11:08:47;;;;;;;52.50;25.95;;;;;;;7.60;70.07;98557.50;5064647;28;20119;-68
2021/11/13 11:11:25;;;;;;;54.67;26.98;;;;;;;7.64;69.62;98547.66;5060578;28;20521;-68
2021/11/13 11:13:54;;;;;;;56.05;27.05;;;;;;;7.72;69.61;98555.31;5055142;28;20028;-69
2021/11/13 11:16:27;;;;;;;60.65;28.52;;;;;;;7.82;69.55;98545.47;5065744;28;20025;-69
2021/11/13 11:18:55;;;;;;;62.10;29.55;;;;;;;7.88;69.44;98545.19;5066702;28;20024;-70
2021/11/13 11:21:47;;;;;;;47.08;23.90;;;;;;;7.99;69.07;98553.34;5063757;28;20078;-69
2021/11/13 11:24:21;;;;;;;54.25;26.90;;;;;;;7.99;69.21;98554.16;5041588;28;20139;-70